Sonic Adventure (DX): Boss Rankings

Records: Times | Rings | Scores | Races | Bosses | Freestyle
Leaders: Times | Rings | Scores | Races | Bosses | Freestyle | Overall
Rank Player Percent Points Date
1 Sonicspeedruner 97.7% 52 03-07-19
2 Gamepro011 96.1% 87 03-07-19
3 chainchump 94.1% 134 03-07-19
4 DarkPolarNight 93.6% 145 03-07-19
5 Austinf 91.4% 196 03-07-19
6 Jawzun 88.5% 262 03-07-19
7 drminus 88.2% 269 03-07-19
8 ethmar 86.6% 306 03-07-19
9 Parax 86.1% 317 03-07-19
10 ike6252 85.4% 333 03-07-19
11 Coolfansonic 83.8% 369 03-07-19
12 Dashjump 83.5% 376 03-07-19
13 Avento128bits 83.2% 383 03-07-19
14 DarkspinesSonic 79.5% 468 03-07-19
15 TheRealShadnic 77.9% 504 03-07-19
16 THC98 77.4% 515 03-07-19
17 F-Man 75.5% 559 03-07-19
18 Marth 74.4% 583 03-07-19
19 Mariobutch 73.2% 611 03-07-19
20 yoshifan 72.6% 626 03-07-19
21 InferSaime 71.8% 644 03-07-19
22 PfoSonic 71.2% 658 03-07-19
23 HyperSonic7701 69.3% 701 03-07-19
24 RPGnutter 68.3% 723 03-07-19
25 Dekuboy 67.4% 744 03-07-19
26 Paragod 66.8% 758 03-07-19
27 mike89 66.5% 765 03-07-19
28 frankoredstrato 66.1% 774 03-07-19
29 sonicam 62.1% 865 03-07-19
30 Groudon199 61.7% 874 03-07-19
31 SadisticMystic 61.4% 881 03-07-19
32 Stefan 60.4% 905 03-07-19
33 Diamond 58.7% 944 03-07-19
34 Combo 56.8% 986 03-07-19
35 bertin 56.5% 993 03-07-19
36 SkyLights 53.8% 1056 03-07-19
37 xXMegaManXx 53.5% 1061 03-07-19
38 Arch 48.1% 1185 03-07-19
38 Fr3nZy 48.1% 1185 03-07-19
40 francisco 48.0% 1187 03-07-19
41 Andrea Ritsu 45.8% 1237 03-07-19
42 OmegaDJ 45.8% 1239 03-07-19
43 Omega Rafael Santos 44.9% 1259 03-07-19
44 P1 Pause 43.2% 1297 03-07-19
45 magnum12 41.1% 1346 03-07-19
46 VeritasDL 41.0% 1348 03-07-19
47 Niczur 39.1% 1392 03-07-19
48 Cyan Ryan 38.9% 1396 03-07-19
49 Zurggriff 37.7% 1423 03-07-19
50 Auriman1 37.2% 1434 03-07-19
51 chaos shadow 35.2% 1481 03-07-19
52 James_Bertolli 35.1% 1482 03-07-19
53 Hunters13 34.3% 1501 03-07-19
54 Psymar 33.5% 1520 03-07-19
55 teamblackarms 33.3% 1523 03-07-19
56 FuzZerd 32.9% 1533 03-07-19
57 Drakodan 32.6% 1540 03-07-19
58 Quartz 31.2% 1572 03-07-19
59 CoEmpathy 31.1% 1575 03-07-19
60 eggFL 30.8% 1581 03-07-19
61 Jerzia 30.5% 1587 03-07-19
62 GerbilSoft 30.3% 1593 03-07-19
63 BigAL49 30.1% 1597 03-07-19
64 elecmouse101 29.4% 1612 03-07-19
65 Thorn 29.1% 1619 03-07-19
65 Webber3000 29.1% 1619 03-07-19
67 Nim 29.0% 1623 03-07-19
68 videogamemaster777 28.7% 1628 03-07-19
69 Mo Player Banned 27.9% 1647 03-07-19
70 Turbos 27.4% 1659 03-07-19
71 Termon 26.8% 1673 03-07-19
72 Dave Cramer 25.6% 1700 03-07-19
73 Flying Fox 25.3% 1706 03-07-19
74 nuckrieg 24.4% 1728 03-07-19
75 buddychaos0415 24.2% 1732 03-07-19
76 Shadow Jacky 23.2% 1755 03-07-19
77 N 21.2% 1801 03-07-19
78 Cream147 20.9% 1807 03-07-19
79 supersonicfan 20.6% 1814 03-07-19
80 NintenDan 20.3% 1821 03-07-19
81 thewaytodawnnn 20.2% 1822 03-07-19
82 MiStEr_ShAoLiN 20.2% 1824 03-07-19
83 itsPersonnal 20.0% 1828 03-07-19
84 Aitamen 19.9% 1829 03-07-19
85 Cybrax 19.5% 1838 03-07-19
86 The T 19.4% 1841 03-07-19
87 SonicWinDX 19.4% 1842 03-07-19
88 supersonic465 19.3% 1844 03-07-19
89 Cruizer 18.2% 1869 03-07-19
90 R3FR4G 17.5% 1885 03-07-19
91 Game_Complete 17.1% 1893 03-07-19
91 VMU Player Banned 17.1% 1893 03-07-19
93 Mastakirby 16.5% 1907 03-07-19
94 The Great Lord Mick 16.3% 1913 03-07-19
95 Questionguy555 15.5% 1930 03-07-19
96 GreatStar 15.3% 1936 03-07-19
97 Spinballwizard 14.8% 1946 03-07-19
98 Sondow 14.0% 1965 03-07-19
99 Destroyer121121 13.8% 1970 03-07-19
99 sonicandamy Player Banned 13.8% 1970 03-07-19
101 GarnetPrincess 13.0% 1987 03-07-19
102 SonicAD 11.8% 2015 03-07-19
103 Don 11.1% 2031 03-07-19
104 Miles9999 10.8% 2039 03-07-19
105 SuperBlitzCraig 10.7% 2040 03-07-19
106 Siavash Tazari 10.5% 2045 03-07-19
107 Psyknux 10.0% 2057 03-07-19
108 Cutiefox 9.7% 2062 03-07-19
109 Werey 9.4% 2070 03-07-19
110 joecoolgames 9.4% 2071 03-07-19
110 knuckles_sonic8 9.4% 2071 03-07-19
112 mauserman 9.0% 2078 03-07-19
113 Badlex727 8.8% 2083 03-07-19
114 Sonic Singularity 8.7% 2086 03-07-19
115 EngiNerd 8.7% 2087 03-07-19
116 WeegeeZV 8.5% 2090 03-07-19
117 dShadow 8.0% 2101 03-07-19
118 Hipertails12 8.0% 2102 03-07-19
119 Shanekilz 7.8% 2106 03-07-19
120 Aiko 7.7% 2108 03-07-19
121 Therio 7.5% 2114 03-07-19
122 ArthurVGCP 7.1% 2123 03-07-19
123 Calfd 6.8% 2129 03-07-19
124 TommyeAsY 6.8% 2130 03-07-19
125 TheChaosEmeraIds 6.6% 2133 03-07-19
126 FocusSight64 6.6% 2134 03-07-19
126 sonic29887 6.6% 2134 03-07-19
128 Chao_Fan 6.1% 2145 03-07-19
129 djmat 6.0% 2148 03-07-19
130 HHNNBBHHN 5.6% 2156 03-07-19
130 tal39h 5.6% 2156 03-07-19
132 paulie9990 5.6% 2157 03-07-19
133 Sogeking 5.5% 2158 03-07-19
134 ModifiedMonkee 5.2% 2165 03-07-19
135 Brian_pso 4.9% 2173 03-07-19
136 Chawkk 4.8% 2176 03-07-19
137 SpinDashMaster 4.6% 2180 03-07-19
138 MK 4.5% 2181 03-07-19
139 SilvertheAlmighty 4.4% 2185 03-07-19
140 Crispian 4.1% 2190 03-07-19
141 MastaToken 4.0% 2193 03-07-19
142 SpiritDragon1995 3.8% 2198 03-07-19
143 Sonique Hedgehog 3.7% 2200 03-07-19
144 PsyBorg 3.5% 2205 03-07-19
145 KinkyCadence 3.4% 2206 03-07-19
146 FSSRandomvids 3.3% 2209 03-07-19
146 Mad Andy 3.3% 2209 03-07-19
148 koinu93 2.9% 2219 03-07-19
149 Rolken 2.8% 2221 03-07-19
150 JamminX42 2.7% 2223 03-07-19
150 Xia 2.7% 2223 03-07-19
152 andres430 2.3% 2232 03-07-19
153 shadowblast63 Player Banned 2.2% 2234 03-07-19
154 crazy1993 2.0% 2239 03-07-19
155 dabestgamer 2.0% 2240 03-07-19
156 Illidan 1.9% 2242 03-07-19
157 Richied 1.8% 2243 03-07-19
158 DanielTheFalcon 1.7% 2247 03-07-19
158 gamer1245 1.7% 2247 03-07-19
160 Iwannabelink 1.6% 2249 03-07-19
161 niscool 1.3% 2254 03-07-19
161 soniccoloursunleashed 1.3% 2254 03-07-19
163 oTaiIilLsS 1.3% 2255 03-07-19
164 ieatatsonic 1.0% 2262 03-07-19
165 Lil_Dude 0.8% 2267 03-07-19
166 LinksDarkArrows 0.7% 2268 03-07-19
167 Cbwade15 0.4% 2275 03-07-19
168 neaolas 0.3% 2278 03-07-19
169 BlankTH 0.2% 2281 03-07-19
170 Heroes_Hater 0.1% 2282 03-07-19
171 S-MS32X-S 0.0% 2284 03-07-19
172 KaM Mark MaK 0.0% 2286 03-07-19
172 MegabombBlade 0.0% 2286 03-07-19

This page is using the New Data Table System. [FUTURE]

Game ID: 3 | Category ID: 6
Hits: 5,092 | Hits This Month: 18 | DB Calls: 24 | Mem Usage: 5.77 MB | Time: 0.08s | Printable

The Sonic Center v3.9
Copyright 2003-2011 by The Sonic Center Team.